Pemaquid Point Lighthouse, ME

43° 50' 13"N, 69° 30' 22"W, Elevation 40 ft.
Eastern Time

Hourly observations for the last 72 hours

Date Time Temperature (°F) Humi-
dity

(%)
Wind
(mph)
Pressure Rain (in) Sun
(W/m2)
UV ET
(in)
Air Dew 6 Hour 1 Hr 3 Hr 6 Hr Day
Alt
(in)
Sea
Level

(mb)
Max Min
9 11:00 71.0 66.9 87 SSW 4 G 6 30.05 1017.5 0.00 775 5.1 0.019
9 10:00 68.3 64.3 87 SW 2 G 7 30.05 1017.7 0.00 234 2.4 0.013
9 09:00 67.2 63.9 89 W 4 G 7 30.05 1017.6 0.00 230 1.5 0.009
9 08:00 66.2 63.5 66.3 64.1 91 WSW 3 G 8 30.06 1018.0 0.00 128 1.0 0.006
9 07:00 65.3 62.9 92 W 4 G 8 30.06 1017.9 0.00 81 0.5 0.005
9 06:00 64.2 61.8 92 WSW 2 G 7 30.06 1017.9 0.00 23 0.0 0.004
9 05:00 64.5 62.1 92 WSW 5 G 9 30.05 1017.8 0.00 0 0.0 0.003
9 04:00 64.6 62.2 92 W 4 G 7 30.05 1017.6 0.00 0 0.0 0.003
9 03:00 64.7 62.0 91 WSW 3 G 8 30.05 1017.8 0.00 0 0.0 0.002
9 02:00 65.0 62.6 67.9 64.7 92 WSW 7 G 11 30.07 1018.2 0.00 0 0.0 0.001
9 01:00 65.2 62.5 91 WSW 4 G 9 30.08 1018.7 0.00 0 0.0 0.000
9 00:00 65.7 62.4 89 SW 2 G 8 30.08 1018.8 0.00 0 0.0 0.152
8 23:00 66.2 62.5 88 W 6 G 9 30.09 1018.9 0.00 0 0.0 0.151
8 22:00 66.4 62.7 88 W 8 G 10 30.08 1018.7 0.00 0 0.0 0.150
8 21:00 66.9 63.2 88 W 7 G 9 30.08 1018.7 0.00 0 0.0 0.149
8 20:00 67.9 63.9 75.2 67.8 87 W 6 G 9 30.07 1018.3 0.00 0 0.0 0.148
8 19:00 70.3 65.6 85 WSW 4 G 7 30.07 1018.4 0.00 100 0.0 0.143
8 18:00 72.8 66.6 81 SSW 5 G 7 30.07 1018.2 0.00 339 0.8 0.132
8 17:00 73.9 68.4 83 SSW 5 G 10 30.08 1018.6 0.00 510 1.7 0.117
8 16:00 73.8 68.3 83 SSW 6 G 9 30.09 1019.1 0.00 712 3.0 0.099
8 15:00 75.0 68.1 79 SSW 6 G 8 30.11 1019.6 0.00 812 4.5 0.078
8 14:00 74.4 68.9 74.4 66.2 83 SW 4 G 7 30.13 1020.2 0.00 1086 6.4 0.055
8 13:00 73.6 68.5 84 SSW 5 G 8 30.14 1020.6 0.00 837 6.5 0.035
8 12:00 72.1 67.0 84 SW 5 G 10 30.15 1020.9 0.00 462 4.1 0.020
8 11:00 69.4 65.7 88 SW 6 G 9 30.15 1021.1 0.00 315 2.6 0.013
8 10:00 68.4 65.0 89 WSW 1 G 4 30.15 1021.0 0.00 206 2.2 0.008
8 09:00 67.2 65.1 93 SW 1 G 4 30.16 1021.3 0.00 227 1.5 0.005
8 08:00 66.3 64.2 66.7 62.0 93 W 1 G 3 30.15 1021.1 0.00 46 0.0 0.003
8 07:00 63.7 61.6 93 Calm 30.14 1020.8 0.00 46 0.0 0.002
8 06:00 62.3 59.9 92 Calm 30.14 1020.7 0.00 5 0.0 0.002
8 05:00 62.3 59.9 92 NNW 0 G 2 30.14 1020.5 0.00 0 0.0 0.002
8 04:00 62.7 60.0 91 Calm 30.14 1020.7 0.00 0 0.0 0.002
8 03:00 63.5 60.8 91 NE 0 G 2 30.15 1021.0 0.00 0 0.0 0.002
8 02:00 64.8 61.8 69.2 64.7 90 NE 3 G 6 30.14 1020.8 0.00 0 0.0 0.001
8 01:00 65.4 63.0 92 W 6 G 9 30.15 1021.0 0.00 0 0.0 0.000
8 00:00 66.1 63.7 92 W 7 G 8 30.15 1021.0 0.00 0 0.0 0.164
7 23:00 66.6 64.2 92 W 6 G 8 30.15 1021.0 0.00 0 0.0 0.163
7 22:00 66.3 63.3 90 SW 2 G 3 30.16 1021.4 0.00 0 0.0 0.162
7 21:00 68.1 64.4 88 SSE 2 G 3 30.16 1021.4 0.00 0 0.0 0.162
7 20:00 69.2 64.8 76.2 69.2 86 SSE 3 G 3 30.14 1020.7 0.00 0 0.0 0.161
7 19:00 71.0 65.2 82 SSE 2 G 4 30.14 1020.7 0.00 149 0.0 0.154
7 18:00 71.3 65.9 83 SSE 2 G 3 30.15 1020.9 0.00 425 0.9 0.147
7 17:00 71.9 65.8 81 SSE 3 G 4 30.15 1021.1 0.00 401 1.7 0.136
7 16:00 72.7 65.5 78 SSE 4 G 4 30.16 1021.5 0.00 582 3.0 0.119
7 15:00 75.3 66.4 74 SSE 2 G 4 30.17 1021.6 0.00 833 5.1 0.097
7 14:00 74.5 66.1 76.5 65.3 75 SSE 4 G 5 30.17 1021.7 0.00 874 6.3 0.074
7 13:00 75.9 65.8 71 SSE 4 G 5 30.17 1021.9 0.00 846 7.5 0.053
7 12:00 73.9 64.7 73 NE 1 G 3 30.18 1022.2 0.00 918 7.1 0.031
7 11:00 73.0 60.6 65 NE 2 G 3 30.19 1022.3 0.00 501 4.4 0.019
7 10:00 68.8 62.0 79 NE 3 G 4 30.19 1022.4 0.00 276 2.9 0.013
7 09:00 66.3 61.3 84 N 3 G 4 30.18 1022.0 0.00 167 1.9 0.009
7 08:00 65.3 60.3 65.3 58.4 84 NW 2 G 3 30.17 1021.6 0.00 167 1.1 0.007
7 07:00 61.3 58.0 89 N 3 G 4 30.15 1021.1 0.00 40 0.0 0.006
7 06:00 60.0 56.4 88 N 1 G 2 30.15 1020.9 0.00 25 0.0 0.005
7 05:00 59.9 57.0 90 NNE 5 G 8 30.13 1020.5 0.00 0 0.0 0.004
7 04:00 60.2 56.3 87 NNE 3 G 5 30.13 1020.4 0.00 0 0.0 0.003
7 03:00 63.1 58.5 85 NE 3 G 6 30.13 1020.3 0.00 0 0.0 0.002
7 02:00 63.4 59.1 65.9 62.7 86 WNW 6 G 8 30.13 1020.2 0.00 0 0.0 0.001
7 01:00 62.9 59.6 89 W 6 G 9 30.12 1020.1 0.00 0 0.0 0.000
7 00:00 63.5 59.9 88 W 4 G 7 30.12 1020.0 0.00 0 0.0 0.175
6 23:00 64.0 59.7 86 SW 3 G 7 30.11 1019.6 0.00 0 0.0 0.174
6 22:00 64.3 60.7 88 W 7 G 8 30.10 1019.2 0.00 0 0.0 0.173
6 21:00 64.6 60.6 87 W 9 G 11 30.08 1018.8 0.00 0 0.0 0.172
6 20:00 65.9 61.3 73.0 65.9 85 W 5 G 9 30.07 1018.2 0.00 0 0.0 0.170
6 19:00 69.5 62.7 79 WSW 3 G 8 30.05 1017.7 0.00 123 0.0 0.164
6 18:00 71.0 63.1 76 WSW 4 G 10 30.04 1017.3 0.00 341 0.9 0.153
6 17:00 72.2 63.8 75 SW 3 G 8 30.04 1017.4 0.00 568 2.1 0.137
6 16:00 72.8 63.7 73 SW 6 G 10 30.04 1017.2 0.00 703 3.6 0.119
6 15:00 70.7 64.2 80 SW 8 G 14 30.04 1017.4 0.00 659 4.5 0.098
6 14:00 71.3 64.8 75.5 65.4 80 SW 11 G 15 30.04 1017.4 0.00 928 6.8 0.075
6 13:00 70.8 64.3 80 SSW 11 G 14 30.05 1017.7 0.00 756 6.6 0.054
6 12:00 72.2 64.6 77 SSW 9 G 11 30.06 1017.9 0.00 872 7.6 0.030

Data generated by WxSolution Version 1.9.1.8, Build 2020.02.16.